Time;durP1;ratioP1;P1;durP2;ratioP2;P2;SDS_P1;SDS_P2;PMS_P1;PMS_P2;Temp;Humidity;BMP_temperature;BMP_pressure;BME280_temperature;BME280_humidity;BME280_pressure;Samples;Min_cycle;Max_cycle;Signal;HPM_P1;HPM_P2
2022/04/07 00:00:59;;;;;;;0.00;0.00;;;;;;;;;;5001433;28;20015;-70
2022/04/07 00:03:25;;;;;;;0.00;0.00;;;;;;;;;;4984865;28;20158;-70
2022/04/07 00:05:51;;;;;;;0.00;0.00;;;;;;;;;;5001611;28;20029;-71
2022/04/07 00:08:17;;;;;;;0.00;0.00;;;;;;;;;;4983419;28;20286;-72
2022/04/07 00:10:46;;;;;;;0.00;0.00;;;;;;;;;;4984759;28;20205;-71
2022/04/07 00:13:12;;;;;;;;;;;;;;;;;;4984975;28;20093;-72
2022/04/07 00:15:38;;;;;;;0.00;0.00;;;;;;;;;;4984785;28;19913;-72
2022/04/07 00:18:04;;;;;;;0.00;0.00;;;;;;;;;;4983465;28;20018;-71
2022/04/07 00:20:30;;;;;;;0.00;0.00;;;;;;;;;;4984310;28;20053;-72
2022/04/07 00:22:57;;;;;;;0.00;0.00;;;;;;;;;;5001042;28;20015;-72
2022/04/07 00:25:25;;;;;;;0.00;0.00;;;;;;;;;;4984269;28;20336;-72
2022/04/07 00:27:51;;;;;;;0.00;0.00;;;;;;;;;;5001228;28;20086;-71
2022/04/07 00:30:20;;;;;;;0.00;0.00;;;;;;;;;;4995549;28;20029;-71
2022/04/07 00:32:47;;;;;;;0.00;0.00;;;;;;;;;;4984142;28;20030;-72
2022/04/07 00:35:13;;;;;;;0.00;0.00;;;;;;;;;;5001418;28;20042;-71
2022/04/07 00:37:39;;;;;;;0.00;0.00;;;;;;;;;;5001829;28;20376;-71
2022/04/07 00:40:06;;;;;;;0.00;0.00;;;;;;;;;;5000540;28;20025;-72
2022/04/07 00:42:33;;;;;;;0.63;0.63;;;;;;;;;;5001961;28;20024;-72
2022/04/07 00:44:59;;;;;;;0.00;0.00;;;;;;;;;;4983621;28;20026;-72
2022/04/07 00:47:27;;;;;;;0.00;0.00;;;;;;;;;;5001879;28;20022;-71
2022/04/07 00:49:53;;;;;;;0.00;0.00;;;;;;;;;;5002006;28;20083;-71
2022/04/07 00:52:20;;;;;;;0.00;0.00;;;;;;;;;;4983682;28;20033;-70
2022/04/07 00:54:46;;;;;;;0.00;0.00;;;;;;;;;;5001243;28;20026;-71
2022/04/07 00:57:12;;;;;;;0.00;0.00;;;;;;;;;;5000908;28;20014;-71
2022/04/07 00:59:40;;;;;;;0.00;0.00;;;;;;;;;;4983713;28;20069;-72
2022/04/07 01:02:09;;;;;;;0.00;0.00;;;;;;;;;;4987871;28;20018;-71
2022/04/07 01:04:35;;;;;;;0.00;0.00;;;;;;;;;;4984031;28;20106;-70
2022/04/07 01:07:01;;;;;;;0.00;0.00;;;;;;;;;;4986578;28;20026;-70
2022/04/07 01:09:27;;;;;;;0.00;0.00;;;;;;;;;;4987373;28;20022;-70
2022/04/07 01:11:53;;;;;;;0.00;0.00;;;;;;;;;;5003916;28;20046;-71
2022/04/07 01:14:19;;;;;;;0.00;0.00;;;;;;;;;;5004486;28;20081;-71
2022/04/07 01:16:45;;;;;;;0.00;0.00;;;;;;;;;;5026385;23;20061;-79
2022/04/07 01:19:11;;;;;;;0.00;0.00;;;;;;;;;;5002381;28;20119;-79
2022/04/07 01:21:38;;;;;;;0.00;0.00;;;;;;;;;;4998226;28;20023;-79
2022/04/07 01:24:05;;;;;;;0.00;0.00;;;;;;;;;;4984774;28;20022;-78
2022/04/07 01:26:37;;;;;;;0.00;0.00;;;;;;;;;;5000237;28;20094;-78
2022/04/07 01:29:03;;;;;;;0.00;0.00;;;;;;;;;;4983839;28;20062;-77
2022/04/07 01:31:31;;;;;;;0.00;0.00;;;;;;;;;;4968873;28;20034;-78
2022/04/07 01:33:58;;;;;;;0.00;0.00;;;;;;;;;;4964918;28;20019;-75
2022/04/07 01:36:25;;;;;;;0.00;0.00;;;;;;;;;;4975965;28;20038;-73
2022/04/07 01:38:51;;;;;;;0.00;0.00;;;;;;;;;;4979749;28;20023;-77
2022/04/07 01:41:19;;;;;;;0.45;0.10;;;;;;;;;;4981707;28;20957;-78
2022/04/07 01:43:46;;;;;;;0.00;0.00;;;;;;;;;;4982813;28;20018;-76
2022/04/07 01:46:12;;;;;;;0.00;0.00;;;;;;;;;;4961298;28;20054;-76
2022/04/07 01:48:39;;;;;;;0.00;0.00;;;;;;;;;;4976332;28;20102;-75
2022/04/07 01:51:06;;;;;;;0.00;0.00;;;;;;;;;;4979371;28;20034;-77
2022/04/07 01:53:32;;;;;;;0.00;0.00;;;;;;;;;;4977439;28;20026;-77
2022/04/07 01:55:58;;;;;;;0.00;0.00;;;;;;;;;;4978320;28;20034;-78
2022/04/07 01:58:24;;;;;;;0.00;0.00;;;;;;;;;;4979913;28;20026;-76
2022/04/07 02:00:51;;;;;;;0.00;0.00;;;;;;;;;;4961909;28;20141;-73
2022/04/07 02:03:17;;;;;;;0.00;0.00;;;;;;;;;;4964234;28;20106;-73
2022/04/07 02:05:43;;;;;;;0.00;0.00;;;;;;;;;;4964505;28;20019;-75
2022/04/07 02:08:09;;;;;;;0.00;0.00;;;;;;;;;;4978688;28;20041;-76
2022/04/07 02:10:35;;;;;;;0.00;0.00;;;;;;;;;;4986581;28;20018;-76
2022/04/07 02:13:01;;;;;;;0.00;0.00;;;;;;;;;;5000735;28;20062;-76
2022/04/07 02:15:27;;;;;;;0.00;0.00;;;;;;;;;;5002004;28;20034;-77
2022/04/07 02:17:53;;;;;;;0.00;0.00;;;;;;;;;;4982476;28;20125;-78
2022/04/07 02:20:19;;;;;;;0.00;0.00;;;;;;;;;;4984470;28;20015;-78
2022/04/07 02:22:46;;;;;;;0.00;0.00;;;;;;;;;;4987718;28;20168;-78
2022/04/07 02:25:12;;;;;;;0.00;0.00;;;;;;;;;;4993489;28;20022;-78
2022/04/07 02:27:39;;;;;;;0.00;0.00;;;;;;;;;;4979053;28;20040;-79
2022/04/07 02:30:12;;;;;;;0.40;0.40;;;;;;;;;;4980506;28;20144;-80
2022/04/07 02:32:38;;;;;;;0.00;0.00;;;;;;;;;;4983536;28;20069;-79
2022/04/07 02:35:04;;;;;;;0.00;0.00;;;;;;;;;;4983051;28;20044;-79
2022/04/07 02:37:31;;;;;;;0.00;0.00;;;;;;;;;;4972908;28;20077;-80
2022/04/07 02:39:57;;;;;;;0.00;0.00;;;;;;;;;;4990775;28;20014;-79
2022/04/07 02:42:23;;;;;;;0.00;0.00;;;;;;;;;;4965501;28;20049;-79
2022/04/07 02:44:49;;;;;;;0.00;0.00;;;;;;;;;;4982705;28;20093;-76
2022/04/07 02:47:15;;;;;;;0.00;0.00;;;;;;;;;;4983274;28;20014;-77
2022/04/07 02:49:41;;;;;;;0.00;0.00;;;;;;;;;;4977168;28;20038;-76
2022/04/07 02:52:11;;;;;;;0.00;0.00;;;;;;;;;;4996094;28;20045;-76
2022/04/07 02:54:37;;;;;;;0.00;0.00;;;;;;;;;;4969162;28;20018;-77
2022/04/07 02:57:05;;;;;;;0.00;0.00;;;;;;;;;;4991571;28;20309;-77
2022/04/07 02:59:34;;;;;;;0.00;0.00;;;;;;;;;;4997755;28;20026;-76
2022/04/07 03:02:01;;;;;;;0.00;0.00;;;;;;;;;;4975646;28;20072;-77
2022/04/07 03:04:27;;;;;;;0.00;0.00;;;;;;;;;;4998781;28;20202;-77
2022/04/07 03:06:53;;;;;;;0.00;0.00;;;;;;;;;;4977033;28;20019;-70
2022/04/07 03:09:19;;;;;;;0.00;0.00;;;;;;;;;;4981644;28;20023;-76
2022/04/07 03:11:48;;;;;;;0.00;0.00;;;;;;;;;;4995776;28;20128;-75
2022/04/07 03:14:15;;;;;;;0.00;0.00;;;;;;;;;;4999212;28;20050;-76
2022/04/07 03:16:41;;;;;;;0.00;0.00;;;;;;;;;;5001922;28;20073;-76
2022/04/07 03:19:07;;;;;;;0.00;0.00;;;;;;;;;;5002011;28;20033;-76
2022/04/07 03:21:33;;;;;;;0.00;0.00;;;;;;;;;;4977419;28;20070;-77
2022/04/07 03:23:59;;;;;;;0.00;0.00;;;;;;;;;;4988665;28;20302;-77
2022/04/07 03:26:25;;;;;;;0.00;0.00;;;;;;;;;;4982697;28;20082;-76
2022/04/07 03:28:51;;;;;;;0.00;0.00;;;;;;;;;;4981638;28;20288;-76
2022/04/07 03:31:17;;;;;;;0.00;0.00;;;;;;;;;;4979332;28;20018;-76
2022/04/07 03:33:44;;;;;;;0.00;0.00;;;;;;;;;;4986808;28;20356;-78
2022/04/07 03:36:10;;;;;;;0.00;0.00;;;;;;;;;;4979209;28;20061;-78
2022/04/07 03:38:37;;;;;;;0.00;0.00;;;;;;;;;;4973187;28;20109;-77
2022/04/07 03:41:05;;;;;;;0.00;0.00;;;;;;;;;;4970610;28;20015;-75
2022/04/07 03:43:32;;;;;;;0.00;0.00;;;;;;;;;;4978433;28;20521;-75
2022/04/07 03:45:58;;;;;;;0.00;0.00;;;;;;;;;;4960376;28;20030;-76
2022/04/07 03:48:24;;;;;;;0.00;0.00;;;;;;;;;;4962264;28;20243;-77
2022/04/07 03:50:50;;;;;;;0.00;0.00;;;;;;;;;;4978534;28;20019;-77
2022/04/07 03:53:16;;;;;;;0.00;0.00;;;;;;;;;;4979747;28;20289;-76
2022/04/07 03:55:42;;;;;;;0.00;0.00;;;;;;;;;;4988498;28;20018;-75
2022/04/07 03:58:08;;;;;;;0.00;0.00;;;;;;;;;;4993365;28;20105;-76
2022/04/07 04:00:34;;;;;;;0.00;0.00;;;;;;;;;;4992311;28;20137;-74
2022/04/07 04:03:00;;;;;;;0.00;0.00;;;;;;;;;;4964947;28;20042;-75
2022/04/07 04:05:26;;;;;;;0.00;0.00;;;;;;;;;;4981767;28;20309;-75
2022/04/07 04:07:52;;;;;;;0.00;0.00;;;;;;;;;;4979165;28;20102;-76
2022/04/07 04:10:18;;;;;;;0.05;0.00;;;;;;;;;;4981673;28;20113;-75
2022/04/07 04:12:44;;;;;;;0.00;0.00;;;;;;;;;;4986597;28;20019;-74
2022/04/07 04:15:10;;;;;;;0.00;0.00;;;;;;;;;;4962346;28;20027;-74
2022/04/07 04:17:37;;;;;;;0.00;0.00;;;;;;;;;;4991483;28;20096;-74
2022/04/07 04:20:03;;;;;;;0.00;0.00;;;;;;;;;;4981662;28;20048;-74
2022/04/07 04:22:29;;;;;;;0.00;0.00;;;;;;;;;;4987060;28;20278;-75
2022/04/07 04:24:55;;;;;;;0.00;0.00;;;;;;;;;;4980251;28;20333;-71
2022/04/07 04:27:21;;;;;;;0.00;0.00;;;;;;;;;;4986327;28;20086;-73
2022/04/07 04:29:47;;;;;;;0.00;0.00;;;;;;;;;;4999673;28;20034;-75
2022/04/07 04:32:13;;;;;;;0.00;0.00;;;;;;;;;;4976794;28;20077;-73
2022/04/07 04:34:39;;;;;;;0.00;0.00;;;;;;;;;;4981834;28;20018;-74
2022/04/07 04:37:05;;;;;;;0.00;0.00;;;;;;;;;;4992565;28;20045;-75
2022/04/07 04:39:31;;;;;;;0.00;0.00;;;;;;;;;;4973359;28;20038;-76
2022/04/07 04:41:57;;;;;;;0.00;0.00;;;;;;;;;;4996500;28;20019;-76
2022/04/07 04:44:23;;;;;;;0.00;0.00;;;;;;;;;;4984326;28;20018;-76
2022/04/07 04:49:34;;;;;;;0.00;0.00;;;;;;;;;;4991513;28;20033;-77
2022/04/07 04:52:00;;;;;;;0.00;0.00;;;;;;;;;;4990420;28;20080;-73
2022/04/07 04:54:26;;;;;;;0.00;0.00;;;;;;;;;;4985447;28;20097;-74
2022/04/07 04:56:52;;;;;;;0.00;0.00;;;;;;;;;;4984483;28;20030;-76
2022/04/07 04:59:18;;;;;;;0.00;0.00;;;;;;;;;;4984663;28;20097;-79
2022/04/07 05:01:44;;;;;;;0.00;0.00;;;;;;;;;;4997859;28;20294;-75
2022/04/07 05:04:10;;;;;;;0.00;0.00;;;;;;;;;;4992612;28;20057;-78
2022/04/07 05:06:36;;;;;;;0.00;0.00;;;;;;;;;;4983535;28;20042;-77
2022/04/07 05:09:02;;;;;;;0.00;0.00;;;;;;;;;;4983042;28;20029;-77
2022/04/07 05:11:28;;;;;;;0.00;0.00;;;;;;;;;;4992175;28;20011;-75
2022/04/07 05:13:54;;;;;;;0.00;0.00;;;;;;;;;;4978517;28;20065;-72
2022/04/07 05:16:20;;;;;;;0.00;0.00;;;;;;;;;;4976495;28;20058;-74
2022/04/07 05:18:48;;;;;;;0.00;0.00;;;;;;;;;;4991666;28;20026;-74
2022/04/07 05:21:15;;;;;;;0.00;0.00;;;;;;;;;;4984019;28;20054;-73
2022/04/07 05:23:41;;;;;;;0.00;0.00;;;;;;;;;;4983086;28;20036;-73
2022/04/07 05:26:07;;;;;;;0.00;0.00;;;;;;;;;;4964791;28;20057;-74
2022/04/07 05:28:33;;;;;;;0.00;0.00;;;;;;;;;;4956760;28;20169;-73
2022/04/07 05:30:59;;;;;;;0.00;0.00;;;;;;;;;;4958102;28;20087;-74
2022/04/07 05:33:25;;;;;;;0.00;0.00;;;;;;;;;;4978916;28;20070;-73
2022/04/07 05:35:52;;;;;;;0.00;0.00;;;;;;;;;;4959882;28;20038;-73
2022/04/07 05:38:18;;;;;;;0.00;0.00;;;;;;;;;;4977512;28;20231;-72
2022/04/07 05:40:44;;;;;;;0.00;0.00;;;;;;;;;;4979803;28;20015;-72
2022/04/07 05:43:10;;;;;;;0.00;0.00;;;;;;;;;;4963229;28;20015;-73
2022/04/07 05:45:39;;;;;;;0.00;0.00;;;;;;;;;;4962834;28;20226;-72
2022/04/07 05:48:05;;;;;;;0.00;0.00;;;;;;;;;;4978572;28;20019;-73
2022/04/07 05:50:31;;;;;;;0.00;0.00;;;;;;;;;;4961817;28;20201;-73
2022/04/07 05:52:57;;;;;;;0.00;0.00;;;;;;;;;;4979060;28;20026;-69
2022/04/07 05:55:23;;;;;;;0.00;0.00;;;;;;;;;;4979109;28;20033;-73
2022/04/07 05:57:49;;;;;;;0.00;0.00;;;;;;;;;;4985677;28;20097;-74
2022/04/07 06:00:17;;;;;;;0.00;0.00;;;;;;;;;;4984486;28;20085;-73
2022/04/07 06:02:44;;;;;;;0.00;0.00;;;;;;;;;;4996448;28;20018;-72
2022/04/07 06:05:11;;;;;;;0.00;0.00;;;;;;;;;;4992597;28;20084;-74
2022/04/07 06:07:37;;;;;;;0.00;0.00;;;;;;;;;;4970890;28;20026;-75
2022/04/07 06:10:04;;;;;;;0.00;0.00;;;;;;;;;;4964094;28;20026;-73
2022/04/07 06:12:30;;;;;;;0.00;0.00;;;;;;;;;;4974847;28;20102;-72
2022/04/07 06:14:56;;;;;;;0.00;0.00;;;;;;;;;;4989741;28;20122;-73
2022/04/07 06:17:32;;;;;;;0.00;0.00;;;;;;;;;;4996330;28;20050;-73
2022/04/07 06:19:58;;;;;;;0.00;0.00;;;;;;;;;;4992202;28;20076;-72
2022/04/07 06:22:24;;;;;;;0.00;0.00;;;;;;;;;;4973912;28;20007;-70
2022/04/07 06:24:50;;;;;;;0.00;0.00;;;;;;;;;;4974220;28;20181;-73
2022/04/07 06:27:16;;;;;;;0.00;0.00;;;;;;;;;;4990781;28;20006;-70
2022/04/07 06:29:43;;;;;;;0.00;0.00;;;;;;;;;;4994403;28;20093;-73
2022/04/07 06:32:09;;;;;;;0.00;0.00;;;;;;;;;;4973946;28;20041;-72
2022/04/07 06:34:35;;;;;;;0.00;0.00;;;;;;;;;;4969954;28;20286;-72
2022/04/07 06:37:01;;;;;;;0.00;0.00;;;;;;;;;;4996557;28;20226;-71
2022/04/07 06:39:27;;;;;;;0.00;0.00;;;;;;;;;;4973943;28;20299;-73
2022/04/07 06:41:53;;;;;;;0.00;0.00;;;;;;;;;;4992408;28;20022;-74
2022/04/07 06:44:20;;;;;;;0.00;0.00;;;;;;;;;;5000506;28;20015;-72
2022/04/07 06:46:46;;;;;;;0.00;0.00;;;;;;;;;;4982981;28;20301;-73
2022/04/07 06:49:12;;;;;;;0.00;0.00;;;;;;;;;;4999769;28;20085;-72
2022/04/07 06:51:38;;;;;;;0.00;0.00;;;;;;;;;;5000922;28;20010;-73
2022/04/07 06:54:04;;;;;;;0.00;0.00;;;;;;;;;;4998886;28;20328;-70
2022/04/07 06:56:30;;;;;;;0.00;0.00;;;;;;;;;;5000572;28;20030;-72
2022/04/07 06:58:56;;;;;;;0.00;0.00;;;;;;;;;;4994205;28;20173;-73
2022/04/07 07:01:22;;;;;;;0.15;0.15;;;;;;;;;;4986229;28;20037;-73
2022/04/07 07:03:48;;;;;;;0.00;0.00;;;;;;;;;;4975878;28;20041;-73
2022/04/07 07:06:14;;;;;;;0.00;0.00;;;;;;;;;;4971203;28;20022;-74
2022/04/07 07:08:42;;;;;;;0.10;0.00;;;;;;;;;;4995547;28;20024;-73
2022/04/07 07:11:08;;;;;;;0.00;0.00;;;;;;;;;;4978423;28;20305;-70
2022/04/07 07:13:36;;;;;;;0.00;0.00;;;;;;;;;;4990376;28;20069;-73
2022/04/07 07:16:02;;;;;;;0.00;0.00;;;;;;;;;;4969965;28;20325;-73
2022/04/07 07:18:28;;;;;;;0.10;0.10;;;;;;;;;;4969654;28;20050;-73
2022/04/07 07:20:54;;;;;;;0.10;0.10;;;;;;;;;;4975930;28;20010;-74
2022/04/07 07:23:20;;;;;;;0.00;0.00;;;;;;;;;;4972970;28;20019;-74
2022/04/07 07:25:47;;;;;;;0.00;0.00;;;;;;;;;;4988356;28;20018;-73
2022/04/07 07:28:13;;;;;;;0.00;0.00;;;;;;;;;;4986905;28;20018;-72
2022/04/07 07:30:39;;;;;;;0.00;0.00;;;;;;;;;;4998713;28;20014;-72
2022/04/07 07:33:05;;;;;;;0.00;0.00;;;;;;;;;;4995638;28;20065;-72
2022/04/07 07:35:31;;;;;;;0.00;0.00;;;;;;;;;;4994883;28;20344;-72
2022/04/07 07:38:01;;;;;;;0.00;0.00;;;;;;;;;;4987964;28;20083;-71
2022/04/07 07:40:28;;;;;;;0.00;0.00;;;;;;;;;;4998203;28;20011;-74
2022/04/07 07:42:56;;;;;;;0.00;0.00;;;;;;;;;;4996382;28;20222;-74
2022/04/07 07:45:22;;;;;;;0.00;0.00;;;;;;;;;;5004461;28;20316;-74
2022/04/07 07:47:48;;;;;;;0.70;0.40;;;;;;;;;;4981285;28;20073;-71
2022/04/07 07:50:14;;;;;;;0.00;0.00;;;;;;;;;;4972432;28;20211;-72
2022/04/07 07:52:40;;;;;;;0.00;0.00;;;;;;;;;;4993571;28;20014;-75
2022/04/07 07:55:07;;;;;;;0.00;0.00;;;;;;;;;;4987916;28;20389;-73
2022/04/07 07:57:33;;;;;;;0.00;0.00;;;;;;;;;;4983895;28;20050;-72
2022/04/07 07:59:59;;;;;;;0.00;0.00;;;;;;;;;;4991778;28;20148;-74
2022/04/07 08:02:26;;;;;;;0.00;0.00;;;;;;;;;;4989988;28;20027;-71
2022/04/07 08:04:52;;;;;;;0.00;0.00;;;;;;;;;;4986567;28;20022;-72
2022/04/07 08:07:18;;;;;;;0.00;0.00;;;;;;;;;;4988126;28;20061;-72
2022/04/07 08:09:44;;;;;;;0.00;0.00;;;;;;;;;;5002970;28;20276;-70
2022/04/07 08:12:11;;;;;;;0.00;0.00;;;;;;;;;;4983122;28;20266;-70
2022/04/07 08:14:37;;;;;;;0.00;0.00;;;;;;;;;;4964376;28;20101;-72
2022/04/07 08:18:58;;;;;;;0.00;0.00;;;;;;;;;;5118776;27;20574;-72
2022/04/07 08:21:24;;;;;;;0.00;0.00;;;;;;;;;;5089108;28;20062;-72
2022/04/07 08:23:50;;;;;;;0.00;0.00;;;;;;;;;;5107820;28;20055;-73
2022/04/07 08:26:16;;;;;;;0.00;0.00;;;;;;;;;;5106904;28;20084;-74
2022/04/07 08:28:42;;;;;;;0.00;0.00;;;;;;;;;;5088927;28;20023;-75
2022/04/07 08:31:09;;;;;;;0.00;0.00;;;;;;;;;;5106211;28;20092;-72
2022/04/07 08:33:35;;;;;;;0.00;0.00;;;;;;;;;;5105623;28;20035;-75
2022/04/07 08:36:01;;;;;;;0.00;0.00;;;;;;;;;;5087733;28;20028;-73
2022/04/07 08:38:27;;;;;;;1.55;0.90;;;;;;;;;;5087821;28;20077;-73
2022/04/07 08:40:53;;;;;;;0.00;0.00;;;;;;;;;;5106916;28;20012;-74
2022/04/07 08:43:19;;;;;;;0.00;0.00;;;;;;;;;;5106872;28;20239;-75
2022/04/07 08:45:45;;;;;;;0.00;0.00;;;;;;;;;;5107861;28;20020;-76
2022/04/07 08:48:13;;;;;;;0.00;0.00;;;;;;;;;;5106816;28;20077;-71
2022/04/07 08:50:40;;;;;;;0.00;0.00;;;;;;;;;;5089365;28;20019;-73
2022/04/07 08:53:07;;;;;;;0.00;0.00;;;;;;;;;;5098657;28;20065;-72
2022/04/07 08:55:33;;;;;;;0.00;0.00;;;;;;;;;;5071237;28;20075;-70
2022/04/07 08:58:00;;;;;;;0.00;0.00;;;;;;;;;;5078507;28;20202;-71
2022/04/07 09:00:26;;;;;;;0.00;0.00;;;;;;;;;;5096442;28;20206;-74
2022/04/07 09:02:53;;;;;;;0.00;0.00;;;;;;;;;;5107203;28;20031;-71
2022/04/07 09:05:25;;;;;;;0.00;0.00;;;;;;;;;;5105606;28;20050;-74
2022/04/07 09:07:55;;;;;;;0.00;0.00;;;;;;;;;;5071197;28;20032;-72
2022/04/07 09:10:22;;;;;;;0.00;0.00;;;;;;;;;;5058510;28;20305;-70
2022/04/07 09:12:48;;;;;;;0.00;0.00;;;;;;;;;;5048075;28;20027;-74
2022/04/07 09:15:15;;;;;;;0.00;0.00;;;;;;;;;;5077166;28;20690;-70
2022/04/07 09:17:54;;;;;;;0.00;0.00;;;;;;;;;;5055257;28;20147;-71
2022/04/07 09:20:21;;;;;;;0.00;0.00;;;;;;;;;;5076003;28;20110;-70
2022/04/07 09:23:01;;;;;;;1.35;0.00;;;;;;;;;;5076077;28;20060;-73
2022/04/07 09:25:27;;;;;;;0.00;0.00;;;;;;;;;;5066410;28;20011;-72
2022/04/07 09:27:57;;;;;;;0.00;0.00;;;;;;;;;;5065441;28;20757;-72
2022/04/07 09:30:24;;;;;;;0.00;0.00;;;;;;;;;;5053436;28;20020;-73
2022/04/07 09:32:51;;;;;;;0.00;0.00;;;;;;;;;;5059633;28;20089;-72
2022/04/07 09:35:17;;;;;;;0.00;0.00;;;;;;;;;;5054503;28;20196;-73
2022/04/07 09:37:43;;;;;;;0.00;0.00;;;;;;;;;;5059883;28;20024;-72
2022/04/07 09:40:13;;;;;;;0.28;0.28;;;;;;;;;;5056827;28;20032;-72
2022/04/07 09:42:43;;;;;;;0.65;0.65;;;;;;;;;;5059485;28;20280;-71
2022/04/07 09:45:13;;;;;;;2.00;2.00;;;;;;;;;;5050217;28;20092;-72
2022/04/07 09:47:43;;;;;;;0.47;0.47;;;;;;;;;;5052057;28;20221;-72
2022/04/07 09:50:19;;;;;;;0.00;0.00;;;;;;;;;;5050696;28;20073;-71
2022/04/07 09:53:05;;;;;;;0.00;0.00;;;;;;;;;;5058577;28;20074;-72
2022/04/07 09:55:31;;;;;;;0.00;0.00;;;;;;;;;;5049470;28;20845;-72
2022/04/07 09:57:57;;;;;;;0.00;0.00;;;;;;;;;;5059877;28;20048;-71
2022/04/07 10:00:24;;;;;;;0.00;0.00;;;;;;;;;;5053214;28;20928;-71
2022/04/07 10:02:51;;;;;;;0.00;0.00;;;;;;;;;;5060857;28;20294;-72
2022/04/07 10:05:17;;;;;;;0.00;0.00;;;;;;;;;;5048893;28;20229;-71
2022/04/07 10:07:43;;;;;;;0.00;0.00;;;;;;;;;;5050865;28;20032;-72
2022/04/07 10:10:11;;;;;;;0.00;0.00;;;;;;;;;;5052927;28;20043;-71
2022/04/07 10:12:37;;;;;;;0.00;0.00;;;;;;;;;;5051363;28;20346;-71
2022/04/07 10:15:03;;;;;;;0.00;0.00;;;;;;;;;;5050751;28;20032;-72
2022/04/07 10:17:30;;;;;;;0.43;0.00;;;;;;;;;;5061146;28;20322;-71
2022/04/07 10:20:06;;;;;;;0.00;0.00;;;;;;;;;;5061271;28;20404;-70
2022/04/07 10:22:38;;;;;;;0.00;0.00;;;;;;;;;;5050021;28;20207;-71
2022/04/07 10:25:05;;;;;;;0.00;0.00;;;;;;;;;;5051741;28;20028;-71
2022/04/07 10:27:33;;;;;;;0.00;0.00;;;;;;;;;;5060374;28;20148;-70
2022/04/07 10:30:13;;;;;;;0.00;0.00;;;;;;;;;;5051263;28;20124;-71
2022/04/07 10:32:39;;;;;;;0.00;0.00;;;;;;;;;;5058404;28;20399;-71
2022/04/07 10:35:06;;;;;;;0.00;0.00;;;;;;;;;;5050762;28;20081;-69
2022/04/07 10:37:43;;;;;;;0.00;0.00;;;;;;;;;;5051431;28;20036;-70
2022/04/07 10:40:27;;;;;;;0.00;0.00;;;;;;;;;;5051499;28;20031;-70
2022/04/07 10:43:07;;;;;;;0.00;0.00;;;;;;;;;;5054294;28;20053;-70
2022/04/07 10:45:36;;;;;;;3.90;3.60;;;;;;;;;;5062619;28;20027;-70
2022/04/07 10:48:17;;;;;;;9.40;3.55;;;;;;;;;;5055664;28;20030;-70
2022/04/07 10:50:47;;;;;;;0.35;0.10;;;;;;;;;;5050857;28;20703;-71
2022/04/07 10:53:19;;;;;;;0.00;0.00;;;;;;;;;;5061978;28;20023;-71
2022/04/07 10:55:59;;;;;;;0.00;0.00;;;;;;;;;;5062116;28;20025;-70
2022/04/07 10:58:41;;;;;;;0.00;0.00;;;;;;;;;;5050407;28;20257;-72
2022/04/07 11:01:07;;;;;;;0.10;0.10;;;;;;;;;;5063720;28;20024;-70
2022/04/07 11:03:34;;;;;;;0.10;0.10;;;;;;;;;;5060532;28;20020;-73
2022/04/07 11:06:06;;;;;;;0.00;0.00;;;;;;;;;;5060399;28;20323;-72
2022/04/07 11:08:32;;;;;;;0.00;0.00;;;;;;;;;;5059079;28;20044;-72
2022/04/07 11:10:58;;;;;;;0.00;0.00;;;;;;;;;;5057490;28;20118;-75
2022/04/07 11:13:43;;;;;;;0.00;0.00;;;;;;;;;;5058497;28;20023;-72
2022/04/07 11:16:28;;;;;;;0.00;0.00;;;;;;;;;;5062317;28;20087;-70
2022/04/07 11:18:57;;;;;;;0.00;0.00;;;;;;;;;;5058500;28;20040;-71
2022/04/07 11:21:24;;;;;;;0.00;0.00;;;;;;;;;;5059473;28;20098;-72
2022/04/07 11:23:51;;;;;;;0.00;0.00;;;;;;;;;;5060554;28;20108;-71
2022/04/07 11:26:20;;;;;;;0.00;0.00;;;;;;;;;;5058053;28;20343;-70
2022/04/07 11:29:06;;;;;;;0.00;0.00;;;;;;;;;;5059996;28;20020;-71
2022/04/07 11:31:41;;;;;;;0.00;0.00;;;;;;;;;;5055991;28;20028;-73
2022/04/07 11:34:26;;;;;;;0.00;0.00;;;;;;;;;;5058481;28;20064;-71
2022/04/07 11:36:52;;;;;;;0.00;0.00;;;;;;;;;;5057526;28;20024;-73
2022/04/07 11:39:19;;;;;;;88.03;24.30;;;;;;;;;;5060180;28;20048;-72
2022/04/07 11:41:45;;;;;;;0.40;0.40;;;;;;;;;;5062162;28;20260;-75
2022/04/07 11:44:12;;;;;;;0.00;0.00;;;;;;;;;;5056987;28;20023;-71
2022/04/07 11:46:40;;;;;;;0.00;0.00;;;;;;;;;;5056568;28;20351;-72
2022/04/07 11:49:07;;;;;;;0.00;0.00;;;;;;;;;;5059946;28;20200;-73
2022/04/07 11:51:35;;;;;;;0.32;0.32;;;;;;;;;;5056993;28;20038;-72
2022/04/07 11:54:02;;;;;;;0.00;0.00;;;;;;;;;;5062118;28;20436;-72
2022/04/07 11:56:31;;;;;;;0.00;0.00;;;;;;;;;;5060866;28;20020;-71
2022/04/07 11:59:07;;;;;;;0.00;0.00;;;;;;;;;;5063018;28;20358;-71
2022/04/07 12:01:41;;;;;;;0.00;0.00;;;;;;;;;;5059958;28;20031;-70
2022/04/07 12:04:11;;;;;;;0.13;0.13;;;;;;;;;;5058384;28;20028;-70
2022/04/07 12:06:40;;;;;;;0.00;0.00;;;;;;;;;;5056992;28;20025;-72
2022/04/07 12:09:07;;;;;;;0.35;0.35;;;;;;;;;;5055906;28;20188;-72
2022/04/07 12:11:34;;;;;;;0.00;0.00;;;;;;;;;;5057672;28;20024;-74
2022/04/07 12:14:03;;;;;;;0.00;0.00;;;;;;;;;;5057064;28;20255;-75
2022/04/07 12:16:29;;;;;;;0.00;0.00;;;;;;;;;;5057283;28;20123;-71
2022/04/07 12:18:57;;;;;;;0.00;0.00;;;;;;;;;;5075336;28;20115;-73
2022/04/07 12:21:25;;;;;;;0.00;0.00;;;;;;;;;;5099650;28;20057;-74
2022/04/07 12:23:52;;;;;;;;;;;;;;;;;;5097422;28;20214;-73
2022/04/07 12:26:19;;;;;;;0.00;0.00;;;;;;;;;;5086105;28;19900;-73
2022/04/07 12:28:45;;;;;;;0.00;0.00;;;;;;;;;;5099635;28;20047;-74
2022/04/07 12:31:21;;;;;;;0.00;0.00;;;;;;;;;;5093612;28;20019;-74
2022/04/07 12:33:49;;;;;;;0.00;0.00;;;;;;;;;;5095461;28;20085;-76
2022/04/07 12:36:16;;;;;;;0.00;0.00;;;;;;;;;;5083603;28;20012;-74
2022/04/07 12:38:58;;;;;;;0.00;0.00;;;;;;;;;;5085539;28;20025;-72
2022/04/07 12:41:35;;;;;;;0.00;0.00;;;;;;;;;;5092120;28;20250;-73
2022/04/07 12:44:01;;;;;;;0.00;0.00;;;;;;;;;;5089036;28;20013;-74
2022/04/07 12:46:42;;;;;;;0.00;0.00;;;;;;;;;;5085826;28;20299;-75
2022/04/07 12:49:08;;;;;;;0.00;0.00;;;;;;;;;;5092695;28;20016;-72
2022/04/07 12:51:35;;;;;;;2.53;0.93;;;;;;;;;;5088091;28;20241;-75
2022/04/07 12:54:19;;;;;;;0.00;0.00;;;;;;;;;;5088541;28;20064;-74
2022/04/07 12:56:45;;;;;;;0.00;0.00;;;;;;;;;;5084779;28;20200;-75
2022/04/07 12:59:14;;;;;;;0.52;0.10;;;;;;;;;;5089695;28;20012;-74
2022/04/07 13:01:41;;;;;;;4.28;0.38;;;;;;;;;;5085684;28;20095;-73
2022/04/07 13:04:12;;;;;;;0.00;0.00;;;;;;;;;;5087449;28;20298;-72
2022/04/07 13:06:39;;;;;;;0.00;0.00;;;;;;;;;;5088363;28;20016;-74
2022/04/07 13:09:08;;;;;;;0.00;0.00;;;;;;;;;;5090116;28;20028;-74
2022/04/07 13:11:37;;;;;;;0.00;0.00;;;;;;;;;;5089800;28;20026;-73
2022/04/07 13:14:13;;;;;;;0.00;0.00;;;;;;;;;;5087631;28;20291;-77
2022/04/07 13:16:40;;;;;;;0.13;0.13;;;;;;;;;;5092810;28;20090;-75
2022/04/07 13:19:08;;;;;;;0.00;0.00;;;;;;;;;;5092201;28;20023;-75
2022/04/07 13:21:37;;;;;;;0.00;0.00;;;;;;;;;;5093526;28;20050;-72
2022/04/07 13:24:03;;;;;;;0.00;0.00;;;;;;;;;;5084473;28;20038;-75
2022/04/07 13:26:29;;;;;;;0.00;0.00;;;;;;;;;;5089774;28;20404;-77
2022/04/07 13:28:55;;;;;;;0.00;0.00;;;;;;;;;;5091508;28;20107;-73
2022/04/07 13:31:22;;;;;;;0.00;0.00;;;;;;;;;;5087984;28;20172;-75
2022/04/07 13:33:48;;;;;;;0.00;0.00;;;;;;;;;;5092704;28;20021;-74
2022/04/07 13:36:14;;;;;;;0.00;0.00;;;;;;;;;;5092877;28;20055;-74
2022/04/07 13:38:40;;;;;;;0.00;0.00;;;;;;;;;;5090403;28;20031;-73
2022/04/07 13:41:06;;;;;;;0.00;0.00;;;;;;;;;;5091286;28;20012;-74
2022/04/07 13:43:32;;;;;;;0.00;0.00;;;;;;;;;;5089805;28;20020;-76
2022/04/07 13:45:59;;;;;;;0.70;0.10;;;;;;;;;;5090124;28;20016;-74
2022/04/07 13:48:25;;;;;;;0.00;0.00;;;;;;;;;;5083433;28;20051;-73
2022/04/07 13:50:51;;;;;;;0.00;0.00;;;;;;;;;;5089565;28;20069;-72
2022/04/07 13:53:18;;;;;;;0.00;0.00;;;;;;;;;;5090336;28;20023;-74
2022/04/07 13:55:45;;;;;;;0.00;0.00;;;;;;;;;;5091503;28;20008;-76
2022/04/07 13:58:11;;;;;;;0.00;0.00;;;;;;;;;;5090763;28;20096;-74
2022/04/07 14:00:43;;;;;;;0.00;0.00;;;;;;;;;;5088880;28;20161;-74
2022/04/07 14:03:09;;;;;;;0.00;0.00;;;;;;;;;;5095855;28;20016;-71
2022/04/07 14:05:35;;;;;;;0.00;0.00;;;;;;;;;;5083378;28;20034;-78
2022/04/07 14:08:02;;;;;;;0.00;0.00;;;;;;;;;;5101342;28;20016;-76
2022/04/07 14:10:28;;;;;;;0.00;0.00;;;;;;;;;;5090963;28;20025;-75
2022/04/07 14:12:54;;;;;;;0.00;0.00;;;;;;;;;;5088720;28;20019;-75
2022/04/07 14:15:20;;;;;;;0.00;0.00;;;;;;;;;;5096325;28;20096;-76
2022/04/07 14:17:46;;;;;;;0.00;0.00;;;;;;;;;;5102032;28;20153;-74
2022/04/07 14:20:13;;;;;;;0.00;0.00;;;;;;;;;;5092735;28;20099;-72
2022/04/07 14:22:42;;;;;;;0.00;0.00;;;;;;;;;;5100715;28;20364;-75
2022/04/07 14:25:09;;;;;;;0.00;0.00;;;;;;;;;;5100965;28;20091;-75
2022/04/07 14:27:35;;;;;;;0.00;0.00;;;;;;;;;;5099846;28;20023;-75
2022/04/07 14:30:01;;;;;;;0.00;0.00;;;;;;;;;;5094803;28;20043;-74
2022/04/07 14:32:27;;;;;;;0.00;0.00;;;;;;;;;;5093922;28;20016;-74
2022/04/07 14:34:53;;;;;;;0.00;0.00;;;;;;;;;;5090326;28;20207;-73
2022/04/07 14:37:19;;;;;;;0.00;0.00;;;;;;;;;;5086693;28;20066;-74
2022/04/07 14:39:45;;;;;;;0.00;0.00;;;;;;;;;;5088991;28;20109;-74
2022/04/07 14:42:11;;;;;;;0.00;0.00;;;;;;;;;;5078301;28;20017;-72
2022/04/07 14:44:38;;;;;;;0.00;0.00;;;;;;;;;;5079342;28;20083;-75
2022/04/07 14:47:06;;;;;;;0.00;0.00;;;;;;;;;;5079715;28;20366;-73
2022/04/07 14:49:32;;;;;;;0.00;0.00;;;;;;;;;;5078661;28;20235;-73